sensor_id;sensor_type;location;lat;lon;timestamp;P1;durP1;ratioP1;P2;durP2;ratioP2
46675;SDS011;32412;51.478;5.694;2023-05-29T00:00:20;11.88;;;6.95;;
46675;SDS011;32412;51.478;5.694;2023-05-29T00:02:46;14.07;;;6.50;;
46675;SDS011;32412;51.478;5.694;2023-05-29T00:05:13;15.75;;;7.15;;
46675;SDS011;32412;51.478;5.694;2023-05-29T00:07:39;17.33;;;7.07;;
46675;SDS011;32412;51.478;5.694;2023-05-29T00:10:06;15.95;;;6.50;;
46675;SDS011;32412;51.478;5.694;2023-05-29T00:12:35;13.55;;;6.13;;
46675;SDS011;32412;51.478;5.694;2023-05-29T00:15:01;14.00;;;5.90;;
46675;SDS011;32412;51.478;5.694;2023-05-29T00:17:28;11.10;;;5.60;;
46675;SDS011;32412;51.478;5.694;2023-05-29T00:19:57;13.63;;;6.18;;
46675;SDS011;32412;51.478;5.694;2023-05-29T00:22:34;11.50;;;5.50;;
46675;SDS011;32412;51.478;5.694;2023-05-29T00:25:03;15.30;;;5.88;;
46675;SDS011;32412;51.478;5.694;2023-05-29T00:27:30;15.55;;;4.90;;
46675;SDS011;32412;51.478;5.694;2023-05-29T00:29:56;13.50;;;5.40;;
46675;SDS011;32412;51.478;5.694;2023-05-29T00:32:21;14.82;;;4.78;;
46675;SDS011;32412;51.478;5.694;2023-05-29T00:34:47;13.98;;;5.20;;
46675;SDS011;32412;51.478;5.694;2023-05-29T00:37:12;15.73;;;4.65;;
46675;SDS011;32412;51.478;5.694;2023-05-29T00:39:38;15.07;;;4.18;;
46675;SDS011;32412;51.478;5.694;2023-05-29T00:42:04;18.20;;;4.68;;
46675;SDS011;32412;51.478;5.694;2023-05-29T00:44:30;17.88;;;4.63;;
46675;SDS011;32412;51.478;5.694;2023-05-29T00:46:56;10.23;;;3.67;;
46675;SDS011;32412;51.478;5.694;2023-05-29T00:49:22;14.25;;;4.05;;
46675;SDS011;32412;51.478;5.694;2023-05-29T00:51:49;15.30;;;3.75;;
46675;SDS011;32412;51.478;5.694;2023-05-29T00:54:19;13.38;;;4.13;;
46675;SDS011;32412;51.478;5.694;2023-05-29T00:56:48;19.33;;;4.15;;
46675;SDS011;32412;51.478;5.694;2023-05-29T00:59:14;15.05;;;3.80;;
46675;SDS011;32412;51.478;5.694;2023-05-29T01:01:40;9.30;;;2.67;;
46675;SDS011;32412;51.478;5.694;2023-05-29T01:04:07;14.00;;;3.65;;
46675;SDS011;32412;51.478;5.694;2023-05-29T01:06:38;15.27;;;3.30;;
46675;SDS011;32412;51.478;5.694;2023-05-29T01:09:04;16.23;;;3.63;;
46675;SDS011;32412;51.478;5.694;2023-05-29T01:14:08;17.23;;;3.22;;
46675;SDS011;32412;51.478;5.694;2023-05-29T01:16:43;16.13;;;2.60;;
46675;SDS011;32412;51.478;5.694;2023-05-29T01:25:39;17.73;;;3.22;;
46675;SDS011;32412;51.478;5.694;2023-05-29T01:28:15;11.63;;;3.00;;
46675;SDS011;32412;51.478;5.694;2023-05-29T01:30:46;13.15;;;2.53;;
46675;SDS011;32412;51.478;5.694;2023-05-29T01:33:14;18.17;;;3.00;;
46675;SDS011;32412;51.478;5.694;2023-05-29T01:35:40;18.05;;;2.78;;
46675;SDS011;32412;51.478;5.694;2023-05-29T01:38:05;13.27;;;3.15;;
46675;SDS011;32412;51.478;5.694;2023-05-29T01:40:31;7.57;;;2.63;;
46675;SDS011;32412;51.478;5.694;2023-05-29T01:42:57;13.80;;;3.00;;
46675;SDS011;32412;51.478;5.694;2023-05-29T01:45:22;19.48;;;3.08;;
46675;SDS011;32412;51.478;5.694;2023-05-29T01:47:48;15.30;;;2.88;;
46675;SDS011;32412;51.478;5.694;2023-05-29T01:50:14;18.67;;;3.00;;
46675;SDS011;32412;51.478;5.694;2023-05-29T01:52:43;21.42;;;3.22;;
46675;SDS011;32412;51.478;5.694;2023-05-29T01:55:08;15.65;;;2.92;;
46675;SDS011;32412;51.478;5.694;2023-05-29T01:57:34;18.30;;;2.97;;
46675;SDS011;32412;51.478;5.694;2023-05-29T02:00:02;16.70;;;3.20;;
46675;SDS011;32412;51.478;5.694;2023-05-29T02:02:35;16.48;;;3.08;;
46675;SDS011;32412;51.478;5.694;2023-05-29T02:05:02;12.30;;;2.53;;
46675;SDS011;32412;51.478;5.694;2023-05-29T02:07:28;12.00;;;2.65;;
46675;SDS011;32412;51.478;5.694;2023-05-29T02:09:54;11.02;;;2.30;;
46675;SDS011;32412;51.478;5.694;2023-05-29T02:12:19;13.85;;;2.85;;
46675;SDS011;32412;51.478;5.694;2023-05-29T02:14:45;11.40;;;2.72;;
46675;SDS011;32412;51.478;5.694;2023-05-29T02:17:11;13.88;;;2.40;;
46675;SDS011;32412;51.478;5.694;2023-05-29T02:19:37;16.58;;;2.90;;
46675;SDS011;32412;51.478;5.694;2023-05-29T02:22:02;14.38;;;3.00;;
46675;SDS011;32412;51.478;5.694;2023-05-29T02:24:28;13.13;;;2.88;;
46675;SDS011;32412;51.478;5.694;2023-05-29T02:26:54;17.23;;;3.03;;
46675;SDS011;32412;51.478;5.694;2023-05-29T02:29:20;17.38;;;2.97;;
46675;SDS011;32412;51.478;5.694;2023-05-29T02:31:45;19.70;;;3.22;;
46675;SDS011;32412;51.478;5.694;2023-05-29T02:34:11;13.32;;;2.75;;
46675;SDS011;32412;51.478;5.694;2023-05-29T02:36:37;15.82;;;3.00;;
46675;SDS011;32412;51.478;5.694;2023-05-29T02:39:03;16.00;;;3.03;;
46675;SDS011;32412;51.478;5.694;2023-05-29T02:41:30;12.13;;;2.40;;
46675;SDS011;32412;51.478;5.694;2023-05-29T02:43:56;12.90;;;2.70;;
46675;SDS011;32412;51.478;5.694;2023-05-29T02:46:22;15.60;;;3.03;;
46675;SDS011;32412;51.478;5.694;2023-05-29T02:48:47;15.65;;;2.60;;
46675;SDS011;32412;51.478;5.694;2023-05-29T02:51:13;13.25;;;2.35;;
46675;SDS011;32412;51.478;5.694;2023-05-29T02:53:39;22.92;;;3.22;;
46675;SDS011;32412;51.478;5.694;2023-05-29T02:56:05;12.30;;;2.65;;
46675;SDS011;32412;51.478;5.694;2023-05-29T02:58:33;16.02;;;3.58;;
46675;SDS011;32412;51.478;5.694;2023-05-29T03:01:00;12.98;;;3.05;;
46675;SDS011;32412;51.478;5.694;2023-05-29T03:03:27;17.13;;;3.78;;
46675;SDS011;32412;51.478;5.694;2023-05-29T03:05:53;15.38;;;2.80;;
46675;SDS011;32412;51.478;5.694;2023-05-29T03:08:18;11.82;;;2.65;;
46675;SDS011;32412;51.478;5.694;2023-05-29T03:10:44;14.95;;;2.45;;
46675;SDS011;32412;51.478;5.694;2023-05-29T03:13:10;12.38;;;2.38;;
46675;SDS011;32412;51.478;5.694;2023-05-29T03:15:35;23.08;;;2.78;;
46675;SDS011;32412;51.478;5.694;2023-05-29T03:18:01;18.90;;;2.97;;
46675;SDS011;32412;51.478;5.694;2023-05-29T03:20:27;18.92;;;3.00;;
46675;SDS011;32412;51.478;5.694;2023-05-29T03:22:53;12.70;;;2.60;;
46675;SDS011;32412;51.478;5.694;2023-05-29T03:25:19;16.85;;;3.10;;
46675;SDS011;32412;51.478;5.694;2023-05-29T03:27:46;24.70;;;3.22;;
46675;SDS011;32412;51.478;5.694;2023-05-29T03:30:12;21.80;;;3.05;;
46675;SDS011;32412;51.478;5.694;2023-05-29T03:32:38;20.67;;;3.35;;
46675;SDS011;32412;51.478;5.694;2023-05-29T03:35:07;20.40;;;3.53;;
46675;SDS011;32412;51.478;5.694;2023-05-29T03:37:33;14.15;;;3.20;;
46675;SDS011;32412;51.478;5.694;2023-05-29T03:39:59;16.15;;;3.00;;
46675;SDS011;32412;51.478;5.694;2023-05-29T03:42:30;18.42;;;3.08;;
46675;SDS011;32412;51.478;5.694;2023-05-29T03:44:56;12.20;;;2.97;;
46675;SDS011;32412;51.478;5.694;2023-05-29T03:47:25;19.67;;;3.38;;
46675;SDS011;32412;51.478;5.694;2023-05-29T03:49:51;19.80;;;2.85;;
46675;SDS011;32412;51.478;5.694;2023-05-29T03:52:17;18.58;;;2.90;;
46675;SDS011;32412;51.478;5.694;2023-05-29T03:54:42;22.15;;;3.38;;
46675;SDS011;32412;51.478;5.694;2023-05-29T03:57:09;15.48;;;3.22;;
46675;SDS011;32412;51.478;5.694;2023-05-29T03:59:35;16.70;;;3.35;;
46675;SDS011;32412;51.478;5.694;2023-05-29T04:02:02;16.05;;;3.17;;
46675;SDS011;32412;51.478;5.694;2023-05-29T04:04:28;24.65;;;3.38;;
46675;SDS011;32412;51.478;5.694;2023-05-29T04:06:54;17.70;;;2.60;;
46675;SDS011;32412;51.478;5.694;2023-05-29T04:09:20;19.35;;;3.50;;
46675;SDS011;32412;51.478;5.694;2023-05-29T04:11:45;17.30;;;2.80;;
46675;SDS011;32412;51.478;5.694;2023-05-29T04:14:11;16.23;;;3.30;;
46675;SDS011;32412;51.478;5.694;2023-05-29T04:16:37;17.50;;;3.17;;
46675;SDS011;32412;51.478;5.694;2023-05-29T04:19:02;21.80;;;3.15;;
46675;SDS011;32412;51.478;5.694;2023-05-29T04:21:28;14.90;;;2.90;;
46675;SDS011;32412;51.478;5.694;2023-05-29T04:23:57;15.13;;;3.55;;
46675;SDS011;32412;51.478;5.694;2023-05-29T04:26:23;18.88;;;3.13;;
46675;SDS011;32412;51.478;5.694;2023-05-29T04:28:50;14.73;;;3.03;;
46675;SDS011;32412;51.478;5.694;2023-05-29T04:31:30;11.05;;;2.75;;
46675;SDS011;32412;51.478;5.694;2023-05-29T04:33:56;15.60;;;2.88;;
46675;SDS011;32412;51.478;5.694;2023-05-29T04:36:25;10.13;;;2.78;;
46675;SDS011;32412;51.478;5.694;2023-05-29T04:38:57;23.95;;;3.15;;
46675;SDS011;32412;51.478;5.694;2023-05-29T04:41:24;17.65;;;3.08;;
46675;SDS011;32412;51.478;5.694;2023-05-29T04:43:56;16.45;;;3.35;;
46675;SDS011;32412;51.478;5.694;2023-05-29T04:46:23;14.95;;;3.70;;
46675;SDS011;32412;51.478;5.694;2023-05-29T04:48:50;20.80;;;3.47;;
46675;SDS011;32412;51.478;5.694;2023-05-29T04:51:22;14.10;;;3.33;;
46675;SDS011;32412;51.478;5.694;2023-05-29T04:53:49;13.75;;;3.10;;
46675;SDS011;32412;51.478;5.694;2023-05-29T04:56:16;13.27;;;3.05;;
46675;SDS011;32412;51.478;5.694;2023-05-29T04:58:43;22.55;;;3.28;;
46675;SDS011;32412;51.478;5.694;2023-05-29T05:01:09;20.83;;;3.22;;
46675;SDS011;32412;51.478;5.694;2023-05-29T05:03:39;14.93;;;3.40;;
46675;SDS011;32412;51.478;5.694;2023-05-29T05:06:05;17.10;;;2.83;;
46675;SDS011;32412;51.478;5.694;2023-05-29T05:08:32;20.00;;;3.10;;
46675;SDS011;32412;51.478;5.694;2023-05-29T05:10:59;13.38;;;3.10;;
46675;SDS011;32412;51.478;5.694;2023-05-29T05:13:25;16.92;;;2.97;;
46675;SDS011;32412;51.478;5.694;2023-05-29T05:15:51;22.92;;;3.40;;
46675;SDS011;32412;51.478;5.694;2023-05-29T05:18:17;18.70;;;3.40;;
46675;SDS011;32412;51.478;5.694;2023-05-29T05:20:43;23.73;;;3.72;;
46675;SDS011;32412;51.478;5.694;2023-05-29T05:23:09;20.27;;;3.55;;
46675;SDS011;32412;51.478;5.694;2023-05-29T05:25:35;16.95;;;2.65;;
46675;SDS011;32412;51.478;5.694;2023-05-29T05:28:02;12.23;;;2.90;;
46675;SDS011;32412;51.478;5.694;2023-05-29T05:30:30;13.60;;;2.83;;
46675;SDS011;32412;51.478;5.694;2023-05-29T05:32:56;17.63;;;2.72;;
46675;SDS011;32412;51.478;5.694;2023-05-29T05:35:23;18.08;;;3.03;;
46675;SDS011;32412;51.478;5.694;2023-05-29T05:37:49;19.83;;;2.70;;
46675;SDS011;32412;51.478;5.694;2023-05-29T05:40:15;18.20;;;3.22;;
46675;SDS011;32412;51.478;5.694;2023-05-29T05:42:41;13.68;;;2.72;;
46675;SDS011;32412;51.478;5.694;2023-05-29T05:45:07;13.43;;;2.38;;
46675;SDS011;32412;51.478;5.694;2023-05-29T05:47:33;18.98;;;2.53;;
46675;SDS011;32412;51.478;5.694;2023-05-29T05:49:59;13.88;;;2.72;;
46675;SDS011;32412;51.478;5.694;2023-05-29T05:52:25;15.50;;;2.80;;
46675;SDS011;32412;51.478;5.694;2023-05-29T05:54:55;15.75;;;3.28;;
46675;SDS011;32412;51.478;5.694;2023-05-29T05:57:21;20.60;;;2.95;;
46675;SDS011;32412;51.478;5.694;2023-05-29T05:59:46;11.63;;;2.38;;
46675;SDS011;32412;51.478;5.694;2023-05-29T06:02:12;14.23;;;2.47;;
46675;SDS011;32412;51.478;5.694;2023-05-29T06:04:38;12.60;;;3.08;;
46675;SDS011;32412;51.478;5.694;2023-05-29T06:07:03;16.88;;;3.45;;
46675;SDS011;32412;51.478;5.694;2023-05-29T06:09:29;15.32;;;2.70;;
46675;SDS011;32412;51.478;5.694;2023-05-29T06:11:55;14.63;;;2.25;;
46675;SDS011;32412;51.478;5.694;2023-05-29T06:14:20;16.10;;;2.92;;
46675;SDS011;32412;51.478;5.694;2023-05-29T06:16:46;14.90;;;2.40;;
46675;SDS011;32412;51.478;5.694;2023-05-29T06:19:12;18.27;;;2.53;;
46675;SDS011;32412;51.478;5.694;2023-05-29T06:21:39;13.10;;;3.05;;
46675;SDS011;32412;51.478;5.694;2023-05-29T06:24:05;13.38;;;2.60;;
46675;SDS011;32412;51.478;5.694;2023-05-29T06:26:31;11.73;;;2.45;;
46675;SDS011;32412;51.478;5.694;2023-05-29T06:28:59;11.90;;;2.83;;
46675;SDS011;32412;51.478;5.694;2023-05-29T06:31:24;13.85;;;2.78;;
46675;SDS011;32412;51.478;5.694;2023-05-29T06:33:50;11.75;;;2.50;;
46675;SDS011;32412;51.478;5.694;2023-05-29T06:36:16;14.50;;;2.50;;
46675;SDS011;32412;51.478;5.694;2023-05-29T06:38:48;12.98;;;2.35;;
46675;SDS011;32412;51.478;5.694;2023-05-29T06:41:14;9.75;;;2.40;;
46675;SDS011;32412;51.478;5.694;2023-05-29T06:43:40;16.60;;;2.60;;
46675;SDS011;32412;51.478;5.694;2023-05-29T06:46:05;21.83;;;3.58;;
46675;SDS011;32412;51.478;5.694;2023-05-29T06:48:34;15.57;;;2.65;;
46675;SDS011;32412;51.478;5.694;2023-05-29T06:51:03;11.68;;;2.22;;
46675;SDS011;32412;51.478;5.694;2023-05-29T06:53:40;15.63;;;2.47;;
46675;SDS011;32412;51.478;5.694;2023-05-29T06:56:06;18.63;;;2.90;;
46675;SDS011;32412;51.478;5.694;2023-05-29T06:58:32;13.27;;;2.33;;
46675;SDS011;32412;51.478;5.694;2023-05-29T07:00:58;11.85;;;2.42;;
46675;SDS011;32412;51.478;5.694;2023-05-29T07:03:25;12.18;;;2.42;;
46675;SDS011;32412;51.478;5.694;2023-05-29T07:05:51;12.48;;;2.72;;
46675;SDS011;32412;51.478;5.694;2023-05-29T07:08:18;14.35;;;2.50;;
46675;SDS011;32412;51.478;5.694;2023-05-29T07:10:45;17.13;;;2.63;;
46675;SDS011;32412;51.478;5.694;2023-05-29T07:13:14;10.70;;;2.22;;
46675;SDS011;32412;51.478;5.694;2023-05-29T07:15:41;14.65;;;2.80;;
46675;SDS011;32412;51.478;5.694;2023-05-29T07:18:07;13.10;;;2.42;;
46675;SDS011;32412;51.478;5.694;2023-05-29T07:20:33;12.85;;;2.17;;
46675;SDS011;32412;51.478;5.694;2023-05-29T07:22:59;14.25;;;2.78;;
46675;SDS011;32412;51.478;5.694;2023-05-29T07:25:25;13.65;;;2.20;;
46675;SDS011;32412;51.478;5.694;2023-05-29T07:27:51;16.13;;;3.42;;
46675;SDS011;32412;51.478;5.694;2023-05-29T07:30:17;13.10;;;2.88;;
46675;SDS011;32412;51.478;5.694;2023-05-29T07:32:43;13.52;;;2.42;;
46675;SDS011;32412;51.478;5.694;2023-05-29T07:35:09;14.70;;;2.17;;
46675;SDS011;32412;51.478;5.694;2023-05-29T07:37:35;25.00;;;8.20;;
46675;SDS011;32412;51.478;5.694;2023-05-29T07:40:01;11.32;;;2.67;;
46675;SDS011;32412;51.478;5.694;2023-05-29T07:42:27;10.25;;;1.67;;
46675;SDS011;32412;51.478;5.694;2023-05-29T07:44:53;10.40;;;2.25;;
46675;SDS011;32412;51.478;5.694;2023-05-29T07:47:19;12.02;;;2.45;;
46675;SDS011;32412;51.478;5.694;2023-05-29T07:49:44;8.98;;;2.38;;
46675;SDS011;32412;51.478;5.694;2023-05-29T07:52:10;9.48;;;2.38;;
46675;SDS011;32412;51.478;5.694;2023-05-29T07:54:36;11.68;;;2.30;;
46675;SDS011;32412;51.478;5.694;2023-05-29T07:57:01;12.35;;;2.08;;
46675;SDS011;32412;51.478;5.694;2023-05-29T07:59:27;9.15;;;2.47;;
46675;SDS011;32412;51.478;5.694;2023-05-29T08:01:54;14.60;;;2.45;;
46675;SDS011;32412;51.478;5.694;2023-05-29T08:04:23;11.20;;;2.40;;
46675;SDS011;32412;51.478;5.694;2023-05-29T08:06:49;11.90;;;2.22;;
46675;SDS011;32412;51.478;5.694;2023-05-29T08:09:15;13.10;;;2.60;;
46675;SDS011;32412;51.478;5.694;2023-05-29T08:11:42;9.27;;;2.20;;
46675;SDS011;32412;51.478;5.694;2023-05-29T08:14:11;9.70;;;2.28;;
46675;SDS011;32412;51.478;5.694;2023-05-29T08:16:40;13.95;;;2.60;;
46675;SDS011;32412;51.478;5.694;2023-05-29T08:19:16;10.65;;;2.30;;
46675;SDS011;32412;51.478;5.694;2023-05-29T08:21:45;10.85;;;2.40;;
46675;SDS011;32412;51.478;5.694;2023-05-29T08:24:11;8.27;;;2.22;;
46675;SDS011;32412;51.478;5.694;2023-05-29T08:26:37;13.05;;;2.15;;
46675;SDS011;32412;51.478;5.694;2023-05-29T08:29:03;10.23;;;1.80;;
46675;SDS011;32412;51.478;5.694;2023-05-29T08:31:29;12.73;;;2.72;;
46675;SDS011;32412;51.478;5.694;2023-05-29T08:33:56;9.13;;;2.22;;
46675;SDS011;32412;51.478;5.694;2023-05-29T08:36:21;17.05;;;2.75;;
46675;SDS011;32412;51.478;5.694;2023-05-29T08:38:50;14.52;;;2.33;;
46675;SDS011;32412;51.478;5.694;2023-05-29T08:42:03;13.77;;;2.60;;
46675;SDS011;32412;51.478;5.694;2023-05-29T08:44:22;9.63;;;2.28;;
46675;SDS011;32412;51.478;5.694;2023-05-29T08:46:57;16.08;;;3.58;;
46675;SDS011;32412;51.478;5.694;2023-05-29T08:49:38;13.80;;;2.72;;
46675;SDS011;32412;51.478;5.694;2023-05-29T08:52:10;12.63;;;2.05;;
46675;SDS011;32412;51.478;5.694;2023-05-29T08:54:40;10.35;;;2.30;;
46675;SDS011;32412;51.478;5.694;2023-05-29T08:57:06;13.38;;;2.85;;
46675;SDS011;32412;51.478;5.694;2023-05-29T08:59:32;8.48;;;2.13;;
46675;SDS011;32412;51.478;5.694;2023-05-29T09:01:59;11.93;;;2.10;;
46675;SDS011;32412;51.478;5.694;2023-05-29T09:04:25;10.30;;;2.40;;
46675;SDS011;32412;51.478;5.694;2023-05-29T09:06:53;11.07;;;2.17;;
46675;SDS011;32412;51.478;5.694;2023-05-29T09:09:20;8.45;;;1.90;;
46675;SDS011;32412;51.478;5.694;2023-05-29T09:11:46;8.93;;;2.40;;
46675;SDS011;32412;51.478;5.694;2023-05-29T09:14:32;10.45;;;2.30;;
46675;SDS011;32412;51.478;5.694;2023-05-29T09:17:07;11.63;;;2.78;;
46675;SDS011;32412;51.478;5.694;2023-05-29T09:19:35;13.57;;;2.40;;
46675;SDS011;32412;51.478;5.694;2023-05-29T09:24:28;13.15;;;2.33;;
46675;SDS011;32412;51.478;5.694;2023-05-29T09:26:55;25.33;;;5.20;;
46675;SDS011;32412;51.478;5.694;2023-05-29T09:29:21;11.82;;;2.05;;
46675;SDS011;32412;51.478;5.694;2023-05-29T09:31:47;13.23;;;3.20;;
46675;SDS011;32412;51.478;5.694;2023-05-29T09:34:13;25.42;;;5.90;;
46675;SDS011;32412;51.478;5.694;2023-05-29T09:36:39;25.33;;;5.43;;
46675;SDS011;32412;51.478;5.694;2023-05-29T09:39:05;9.65;;;3.05;;
46675;SDS011;32412;51.478;5.694;2023-05-29T09:41:34;8.32;;;2.10;;
46675;SDS011;32412;51.478;5.694;2023-05-29T09:44:13;24.38;;;4.53;;
46675;SDS011;32412;51.478;5.694;2023-05-29T09:46:40;15.10;;;2.60;;
46675;SDS011;32412;51.478;5.694;2023-05-29T09:49:13;10.77;;;2.67;;
46675;SDS011;32412;51.478;5.694;2023-05-29T09:51:39;9.48;;;2.65;;
46675;SDS011;32412;51.478;5.694;2023-05-29T09:54:16;9.80;;;2.40;;
46675;SDS011;32412;51.478;5.694;2023-05-29T09:56:42;11.23;;;2.67;;
46675;SDS011;32412;51.478;5.694;2023-05-29T09:59:12;9.23;;;2.60;;
46675;SDS011;32412;51.478;5.694;2023-05-29T10:01:40;10.35;;;2.00;;
46675;SDS011;32412;51.478;5.694;2023-05-29T10:04:09;7.07;;;2.03;;
46675;SDS011;32412;51.478;5.694;2023-05-29T10:06:36;8.07;;;1.77;;
46675;SDS011;32412;51.478;5.694;2023-05-29T10:09:05;7.72;;;2.13;;
46675;SDS011;32412;51.478;5.694;2023-05-29T10:11:33;9.30;;;2.10;;
46675;SDS011;32412;51.478;5.694;2023-05-29T10:14:02;13.10;;;2.88;;
46675;SDS011;32412;51.478;5.694;2023-05-29T10:16:30;14.18;;;3.55;;
46675;SDS011;32412;51.478;5.694;2023-05-29T10:19:01;7.97;;;2.17;;
46675;SDS011;32412;51.478;5.694;2023-05-29T10:21:32;11.68;;;2.83;;
46675;SDS011;32412;51.478;5.694;2023-05-29T10:24:01;7.50;;;1.95;;
46675;SDS011;32412;51.478;5.694;2023-05-29T10:26:31;11.23;;;2.70;;
46675;SDS011;32412;51.478;5.694;2023-05-29T10:29:12;9.73;;;2.17;;
46675;SDS011;32412;51.478;5.694;2023-05-29T10:37:17;6.65;;;1.73;;
46675;SDS011;32412;51.478;5.694;2023-05-29T10:39:45;3.90;;;1.70;;
46675;SDS011;32412;51.478;5.694;2023-05-29T10:45:59;6.10;;;1.83;;
46675;SDS011;32412;51.478;5.694;2023-05-29T10:50:47;13.20;;;2.17;;
46675;SDS011;32412;51.478;5.694;2023-05-29T10:53:16;5.53;;;1.83;;
46675;SDS011;32412;51.478;5.694;2023-05-29T10:55:44;9.27;;;2.08;;
46675;SDS011;32412;51.478;5.694;2023-05-29T10:58:21;7.82;;;2.10;;
46675;SDS011;32412;51.478;5.694;2023-05-29T11:00:53;8.70;;;2.50;;
46675;SDS011;32412;51.478;5.694;2023-05-29T11:06:47;10.25;;;2.30;;
46675;SDS011;32412;51.478;5.694;2023-05-29T11:14:53;9.57;;;2.40;;
46675;SDS011;32412;51.478;5.694;2023-05-29T11:17:29;8.55;;;2.17;;
46675;SDS011;32412;51.478;5.694;2023-05-29T11:25:24;7.55;;;2.33;;
46675;SDS011;32412;51.478;5.694;2023-05-29T11:27:52;9.80;;;2.00;;
46675;SDS011;32412;51.478;5.694;2023-05-29T11:30:19;5.53;;;1.67;;
46675;SDS011;32412;51.478;5.694;2023-05-29T11:32:46;6.32;;;2.25;;
46675;SDS011;32412;51.478;5.694;2023-05-29T11:35:14;12.55;;;5.18;;
46675;SDS011;32412;51.478;5.694;2023-05-29T11:37:40;8.60;;;2.40;;
46675;SDS011;32412;51.478;5.694;2023-05-29T11:40:11;9.05;;;2.88;;
46675;SDS011;32412;51.478;5.694;2023-05-29T11:42:41;10.32;;;2.53;;
46675;SDS011;32412;51.478;5.694;2023-05-29T11:50:28;7.03;;;2.40;;
46675;SDS011;32412;51.478;5.694;2023-05-29T11:52:56;7.53;;;1.80;;
46675;SDS011;32412;51.478;5.694;2023-05-29T11:55:23;6.00;;;2.35;;
46675;SDS011;32412;51.478;5.694;2023-05-29T11:57:50;5.60;;;2.35;;
46675;SDS011;32412;51.478;5.694;2023-05-29T12:00:20;9.27;;;2.15;;
46675;SDS011;32412;51.478;5.694;2023-05-29T12:02:47;4.43;;;1.75;;
46675;SDS011;32412;51.478;5.694;2023-05-29T12:05:13;6.38;;;1.98;;
46675;SDS011;32412;51.478;5.694;2023-05-29T12:07:50;6.80;;;2.00;;
46675;SDS011;32412;51.478;5.694;2023-05-29T12:10:18;8.90;;;2.85;;
46675;SDS011;32412;51.478;5.694;2023-05-29T12:12:50;9.07;;;2.00;;
46675;SDS011;32412;51.478;5.694;2023-05-29T12:15:17;7.10;;;1.80;;
46675;SDS011;32412;51.478;5.694;2023-05-29T12:17:44;7.10;;;2.30;;
46675;SDS011;32412;51.478;5.694;2023-05-29T12:20:11;6.25;;;2.20;;
46675;SDS011;32412;51.478;5.694;2023-05-29T12:22:40;8.85;;;2.15;;
46675;SDS011;32412;51.478;5.694;2023-05-29T12:25:07;5.45;;;2.10;;
46675;SDS011;32412;51.478;5.694;2023-05-29T12:27:41;8.77;;;2.78;;
46675;SDS011;32412;51.478;5.694;2023-05-29T12:32:35;8.45;;;2.33;;
46675;SDS011;32412;51.478;5.694;2023-05-29T12:35:09;7.45;;;2.20;;
46675;SDS011;32412;51.478;5.694;2023-05-29T12:37:35;8.47;;;2.20;;
46675;SDS011;32412;51.478;5.694;2023-05-29T12:40:16;8.48;;;2.03;;
46675;SDS011;32412;51.478;5.694;2023-05-29T12:42:45;7.38;;;1.98;;
46675;SDS011;32412;51.478;5.694;2023-05-29T12:45:11;7.05;;;1.88;;
46675;SDS011;32412;51.478;5.694;2023-05-29T12:47:37;5.05;;;2.33;;
46675;SDS011;32412;51.478;5.694;2023-05-29T12:50:42;5.85;;;2.00;;
46675;SDS011;32412;51.478;5.694;2023-05-29T12:55:30;6.20;;;1.83;;
46675;SDS011;32412;51.478;5.694;2023-05-29T12:58:13;6.22;;;2.25;;
46675;SDS011;32412;51.478;5.694;2023-05-29T13:00:41;7.97;;;2.03;;
46675;SDS011;32412;51.478;5.694;2023-05-29T13:03:08;8.50;;;2.08;;
46675;SDS011;32412;51.478;5.694;2023-05-29T13:05:35;6.05;;;1.80;;
46675;SDS011;32412;51.478;5.694;2023-05-29T13:08:01;11.40;;;1.92;;
46675;SDS011;32412;51.478;5.694;2023-05-29T13:10:30;6.80;;;1.90;;
46675;SDS011;32412;51.478;5.694;2023-05-29T13:12:55;5.70;;;2.03;;
46675;SDS011;32412;51.478;5.694;2023-05-29T13:15:24;7.80;;;1.83;;
46675;SDS011;32412;51.478;5.694;2023-05-29T13:17:51;7.03;;;1.85;;
46675;SDS011;32412;51.478;5.694;2023-05-29T13:20:18;8.48;;;2.58;;
46675;SDS011;32412;51.478;5.694;2023-05-29T13:22:45;7.28;;;2.00;;
46675;SDS011;32412;51.478;5.694;2023-05-29T13:25:13;11.18;;;2.22;;
46675;SDS011;32412;51.478;5.694;2023-05-29T13:27:42;4.88;;;2.05;;
46675;SDS011;32412;51.478;5.694;2023-05-29T13:30:10;8.00;;;2.15;;
46675;SDS011;32412;51.478;5.694;2023-05-29T13:32:37;6.95;;;2.45;;
46675;SDS011;32412;51.478;5.694;2023-05-29T13:35:03;7.22;;;1.90;;
46675;SDS011;32412;51.478;5.694;2023-05-29T13:37:29;5.63;;;2.00;;
46675;SDS011;32412;51.478;5.694;2023-05-29T13:39:55;8.20;;;2.25;;
46675;SDS011;32412;51.478;5.694;2023-05-29T13:42:21;11.07;;;2.60;;
46675;SDS011;32412;51.478;5.694;2023-05-29T13:44:47;6.25;;;2.58;;
46675;SDS011;32412;51.478;5.694;2023-05-29T13:47:14;7.07;;;2.00;;
46675;SDS011;32412;51.478;5.694;2023-05-29T13:49:39;6.03;;;2.17;;
46675;SDS011;32412;51.478;5.694;2023-05-29T13:52:05;8.00;;;2.13;;
46675;SDS011;32412;51.478;5.694;2023-05-29T13:54:31;9.10;;;2.17;;
46675;SDS011;32412;51.478;5.694;2023-05-29T13:57:03;8.20;;;2.08;;
46675;SDS011;32412;51.478;5.694;2023-05-29T13:59:30;10.38;;;2.13;;
46675;SDS011;32412;51.478;5.694;2023-05-29T14:01:56;9.20;;;2.13;;
46675;SDS011;32412;51.478;5.694;2023-05-29T14:04:22;10.82;;;1.98;;
46675;SDS011;32412;51.478;5.694;2023-05-29T14:06:47;7.55;;;2.22;;
46675;SDS011;32412;51.478;5.694;2023-05-29T14:09:13;7.40;;;1.92;;
46675;SDS011;32412;51.478;5.694;2023-05-29T14:11:39;5.25;;;2.03;;
46675;SDS011;32412;51.478;5.694;2023-05-29T14:14:05;5.30;;;1.73;;
46675;SDS011;32412;51.478;5.694;2023-05-29T14:16:31;5.38;;;1.90;;
46675;SDS011;32412;51.478;5.694;2023-05-29T14:18:58;4.57;;;2.03;;
46675;SDS011;32412;51.478;5.694;2023-05-29T14:21:24;14.55;;;3.38;;
46675;SDS011;32412;51.478;5.694;2023-05-29T14:23:50;11.73;;;2.42;;
46675;SDS011;32412;51.478;5.694;2023-05-29T14:26:15;11.13;;;2.47;;
46675;SDS011;32412;51.478;5.694;2023-05-29T14:28:41;7.82;;;2.53;;
46675;SDS011;32412;51.478;5.694;2023-05-29T14:31:07;9.55;;;2.80;;
46675;SDS011;32412;51.478;5.694;2023-05-29T14:33:32;14.45;;;2.60;;
46675;SDS011;32412;51.478;5.694;2023-05-29T14:35:58;7.28;;;2.47;;
46675;SDS011;32412;51.478;5.694;2023-05-29T14:38:26;6.15;;;2.20;;
46675;SDS011;32412;51.478;5.694;2023-05-29T14:40:51;7.05;;;2.33;;
46675;SDS011;32412;51.478;5.694;2023-05-29T14:43:17;9.23;;;2.42;;
46675;SDS011;32412;51.478;5.694;2023-05-29T14:45:43;12.05;;;2.50;;
46675;SDS011;32412;51.478;5.694;2023-05-29T14:48:09;11.65;;;2.95;;
46675;SDS011;32412;51.478;5.694;2023-05-29T14:50:35;8.75;;;2.20;;
46675;SDS011;32412;51.478;5.694;2023-05-29T14:53:01;9.13;;;2.25;;
46675;SDS011;32412;51.478;5.694;2023-05-29T14:55:27;11.13;;;2.55;;
46675;SDS011;32412;51.478;5.694;2023-05-29T14:57:53;7.22;;;2.13;;
46675;SDS011;32412;51.478;5.694;2023-05-29T15:00:19;7.85;;;2.20;;
46675;SDS011;32412;51.478;5.694;2023-05-29T15:02:45;11.93;;;2.58;;
46675;SDS011;32412;51.478;5.694;2023-05-29T15:05:10;9.70;;;2.13;;
46675;SDS011;32412;51.478;5.694;2023-05-29T15:07:36;10.15;;;2.13;;
46675;SDS011;32412;51.478;5.694;2023-05-29T15:10:02;12.77;;;2.38;;
46675;SDS011;32412;51.478;5.694;2023-05-29T15:12:28;12.13;;;2.40;;
46675;SDS011;32412;51.478;5.694;2023-05-29T15:14:54;6.38;;;2.00;;
46675;SDS011;32412;51.478;5.694;2023-05-29T15:17:20;7.00;;;2.20;;
46675;SDS011;32412;51.478;5.694;2023-05-29T15:19:46;6.70;;;1.88;;
46675;SDS011;32412;51.478;5.694;2023-05-29T15:22:12;10.30;;;2.70;;
46675;SDS011;32412;51.478;5.694;2023-05-29T15:24:37;7.50;;;2.50;;
46675;SDS011;32412;51.478;5.694;2023-05-29T15:27:03;7.18;;;2.33;;